sensor_id;sensor_type;location;lat;lon;timestamp;P1;durP1;ratioP1;P2;durP2;ratioP2
29280;SDS011;25048;49.590;11.026;2022-07-29T00:01:21;4.90;;;1.80;;
29280;SDS011;25048;49.590;11.026;2022-07-29T00:03:49;6.65;;;1.85;;
29280;SDS011;25048;49.590;11.026;2022-07-29T00:06:16;5.12;;;1.65;;
29280;SDS011;25048;49.590;11.026;2022-07-29T00:08:44;4.17;;;1.32;;
29280;SDS011;25048;49.590;11.026;2022-07-29T00:11:11;2.45;;;1.42;;
29280;SDS011;25048;49.590;11.026;2022-07-29T00:13:39;5.70;;;1.75;;
29280;SDS011;25048;49.590;11.026;2022-07-29T00:16:06;5.30;;;1.65;;
29280;SDS011;25048;49.590;11.026;2022-07-29T00:18:34;6.03;;;1.50;;
29280;SDS011;25048;49.590;11.026;2022-07-29T00:21:01;3.17;;;1.47;;
29280;SDS011;25048;49.590;11.026;2022-07-29T00:23:29;4.35;;;1.37;;
29280;SDS011;25048;49.590;11.026;2022-07-29T00:25:56;3.22;;;1.72;;
29280;SDS011;25048;49.590;11.026;2022-07-29T00:28:24;2.92;;;1.70;;
29280;SDS011;25048;49.590;11.026;2022-07-29T00:30:51;3.30;;;1.30;;
29280;SDS011;25048;49.590;11.026;2022-07-29T00:33:19;7.08;;;2.30;;
29280;SDS011;25048;49.590;11.026;2022-07-29T00:35:47;6.10;;;1.77;;
29280;SDS011;25048;49.590;11.026;2022-07-29T00:38:16;6.30;;;1.30;;
29280;SDS011;25048;49.590;11.026;2022-07-29T00:40:46;4.00;;;1.60;;
29280;SDS011;25048;49.590;11.026;2022-07-29T00:43:14;6.70;;;1.25;;
29280;SDS011;25048;49.590;11.026;2022-07-29T00:45:42;4.20;;;1.72;;
29280;SDS011;25048;49.590;11.026;2022-07-29T00:48:10;3.85;;;1.67;;
29280;SDS011;25048;49.590;11.026;2022-07-29T00:50:37;4.15;;;1.87;;
29280;SDS011;25048;49.590;11.026;2022-07-29T00:53:06;2.92;;;1.50;;
29280;SDS011;25048;49.590;11.026;2022-07-29T00:55:34;2.55;;;1.50;;
29280;SDS011;25048;49.590;11.026;2022-07-29T00:58:02;4.45;;;1.30;;
29280;SDS011;25048;49.590;11.026;2022-07-29T01:00:30;3.47;;;1.42;;
29280;SDS011;25048;49.590;11.026;2022-07-29T01:02:58;7.85;;;1.80;;
29280;SDS011;25048;49.590;11.026;2022-07-29T01:05:26;4.08;;;1.55;;
29280;SDS011;25048;49.590;11.026;2022-07-29T01:07:55;3.52;;;1.47;;
29280;SDS011;25048;49.590;11.026;2022-07-29T01:10:24;2.77;;;1.30;;
29280;SDS011;25048;49.590;11.026;2022-07-29T01:12:52;3.58;;;1.52;;
29280;SDS011;25048;49.590;11.026;2022-07-29T01:15:23;7.45;;;1.67;;
29280;SDS011;25048;49.590;11.026;2022-07-29T01:26:15;1.85;;;1.40;;
29280;SDS011;25048;49.590;11.026;2022-07-29T01:28:52;3.52;;;1.47;;
29280;SDS011;25048;49.590;11.026;2022-07-29T01:31:25;5.08;;;1.32;;
29280;SDS011;25048;49.590;11.026;2022-07-29T01:33:57;1.90;;;1.20;;
29280;SDS011;25048;49.590;11.026;2022-07-29T01:36:31;3.22;;;1.40;;
29280;SDS011;25048;49.590;11.026;2022-07-29T01:39:08;3.30;;;1.20;;
29280;SDS011;25048;49.590;11.026;2022-07-29T01:41:49;3.30;;;1.65;;
29280;SDS011;25048;49.590;11.026;2022-07-29T01:44:31;2.22;;;1.42;;
29280;SDS011;25048;49.590;11.026;2022-07-29T01:47:10;3.30;;;1.57;;
29280;SDS011;25048;49.590;11.026;2022-07-29T01:49:35;5.45;;;1.65;;
29280;SDS011;25048;49.590;11.026;2022-07-29T01:52:13;3.75;;;1.40;;
29280;SDS011;25048;49.590;11.026;2022-07-29T01:54:43;1.90;;;1.27;;
29280;SDS011;25048;49.590;11.026;2022-07-29T01:57:24;1.70;;;1.15;;
29280;SDS011;25048;49.590;11.026;2022-07-29T01:59:52;4.55;;;1.80;;
29280;SDS011;25048;49.590;11.026;2022-07-29T02:02:22;3.50;;;1.22;;
29280;SDS011;25048;49.590;11.026;2022-07-29T02:04:51;1.98;;;1.20;;
29280;SDS011;25048;49.590;11.026;2022-07-29T02:07:21;4.65;;;1.55;;
29280;SDS011;25048;49.590;11.026;2022-07-29T02:09:51;3.12;;;1.30;;
29280;SDS011;25048;49.590;11.026;2022-07-29T02:12:20;3.40;;;1.50;;
29280;SDS011;25048;49.590;11.026;2022-07-29T02:14:51;3.80;;;1.32;;
29280;SDS011;25048;49.590;11.026;2022-07-29T02:17:31;2.52;;;1.22;;
29280;SDS011;25048;49.590;11.026;2022-07-29T02:19:57;7.80;;;2.12;;
29280;SDS011;25048;49.590;11.026;2022-07-29T02:22:26;3.17;;;1.67;;
29280;SDS011;25048;49.590;11.026;2022-07-29T02:24:59;1.82;;;1.20;;
29280;SDS011;25048;49.590;11.026;2022-07-29T02:27:28;1.77;;;1.40;;
29280;SDS011;25048;49.590;11.026;2022-07-29T02:29:57;2.30;;;1.50;;
29280;SDS011;25048;49.590;11.026;2022-07-29T02:32:27;2.08;;;1.30;;
29280;SDS011;25048;49.590;11.026;2022-07-29T02:34:56;4.45;;;1.55;;
29280;SDS011;25048;49.590;11.026;2022-07-29T02:37:24;1.70;;;1.30;;
29280;SDS011;25048;49.590;11.026;2022-07-29T02:39:54;1.82;;;1.30;;
29280;SDS011;25048;49.590;11.026;2022-07-29T02:42:24;1.87;;;1.22;;
29280;SDS011;25048;49.590;11.026;2022-07-29T02:44:54;2.98;;;1.70;;
29280;SDS011;25048;49.590;11.026;2022-07-29T02:47:43;3.00;;;1.42;;
29280;SDS011;25048;49.590;11.026;2022-07-29T02:50:04;5.20;;;1.62;;
29280;SDS011;25048;49.590;11.026;2022-07-29T02:55:18;2.33;;;1.65;;
29280;SDS011;25048;49.590;11.026;2022-07-29T03:00:29;2.42;;;1.40;;
29280;SDS011;25048;49.590;11.026;2022-07-29T03:02:59;1.42;;;1.20;;
29280;SDS011;25048;49.590;11.026;2022-07-29T03:05:29;2.22;;;1.57;;
29280;SDS011;25048;49.590;11.026;2022-07-29T03:08:00;2.77;;;1.65;;
29280;SDS011;25048;49.590;11.026;2022-07-29T03:10:29;2.62;;;1.80;;
29280;SDS011;25048;49.590;11.026;2022-07-29T03:12:58;4.17;;;1.50;;
29280;SDS011;25048;49.590;11.026;2022-07-29T03:15:26;2.52;;;1.50;;
29280;SDS011;25048;49.590;11.026;2022-07-29T03:17:54;2.75;;;1.42;;
29280;SDS011;25048;49.590;11.026;2022-07-29T03:20:23;8.13;;;1.95;;
29280;SDS011;25048;49.590;11.026;2022-07-29T03:22:51;2.65;;;1.30;;
29280;SDS011;25048;49.590;11.026;2022-07-29T03:25:19;2.65;;;1.60;;
29280;SDS011;25048;49.590;11.026;2022-07-29T03:27:47;2.98;;;1.32;;
29280;SDS011;25048;49.590;11.026;2022-07-29T03:30:16;2.47;;;1.60;;
29280;SDS011;25048;49.590;11.026;2022-07-29T03:32:43;2.08;;;1.50;;
29280;SDS011;25048;49.590;11.026;2022-07-29T03:35:11;1.82;;;1.50;;
29280;SDS011;25048;49.590;11.026;2022-07-29T03:37:39;8.48;;;1.55;;
29280;SDS011;25048;49.590;11.026;2022-07-29T03:40:07;2.50;;;1.60;;
29280;SDS011;25048;49.590;11.026;2022-07-29T03:42:37;2.85;;;2.00;;
29280;SDS011;25048;49.590;11.026;2022-07-29T03:45:07;5.47;;;1.98;;
29280;SDS011;25048;49.590;11.026;2022-07-29T03:47:42;2.90;;;1.47;;
29280;SDS011;25048;49.590;11.026;2022-07-29T03:50:08;2.90;;;1.82;;
29280;SDS011;25048;49.590;11.026;2022-07-29T03:52:39;3.20;;;1.70;;
29280;SDS011;25048;49.590;11.026;2022-07-29T03:55:07;4.22;;;1.82;;
29280;SDS011;25048;49.590;11.026;2022-07-29T03:57:35;4.25;;;1.65;;
29280;SDS011;25048;49.590;11.026;2022-07-29T04:00:04;3.90;;;1.40;;
29280;SDS011;25048;49.590;11.026;2022-07-29T04:02:33;2.95;;;1.60;;
29280;SDS011;25048;49.590;11.026;2022-07-29T04:05:02;3.70;;;1.80;;
29280;SDS011;25048;49.590;11.026;2022-07-29T04:07:30;3.17;;;1.50;;
29280;SDS011;25048;49.590;11.026;2022-07-29T04:09:57;3.33;;;1.70;;
29280;SDS011;25048;49.590;11.026;2022-07-29T04:12:25;2.52;;;1.55;;
29280;SDS011;25048;49.590;11.026;2022-07-29T04:14:52;3.55;;;1.80;;
29280;SDS011;25048;49.590;11.026;2022-07-29T04:17:20;2.80;;;1.82;;
29280;SDS011;25048;49.590;11.026;2022-07-29T04:19:47;3.05;;;1.60;;
29280;SDS011;25048;49.590;11.026;2022-07-29T04:22:15;4.53;;;2.17;;
29280;SDS011;25048;49.590;11.026;2022-07-29T04:24:42;2.95;;;1.52;;
29280;SDS011;25048;49.590;11.026;2022-07-29T04:27:10;2.67;;;1.72;;
29280;SDS011;25048;49.590;11.026;2022-07-29T04:29:37;2.40;;;1.70;;
29280;SDS011;25048;49.590;11.026;2022-07-29T04:32:05;2.58;;;1.60;;
29280;SDS011;25048;49.590;11.026;2022-07-29T04:34:33;4.90;;;2.00;;
29280;SDS011;25048;49.590;11.026;2022-07-29T04:37:00;3.95;;;2.00;;
29280;SDS011;25048;49.590;11.026;2022-07-29T04:39:28;1.90;;;1.52;;
29280;SDS011;25048;49.590;11.026;2022-07-29T04:41:55;3.65;;;1.70;;
29280;SDS011;25048;49.590;11.026;2022-07-29T04:44:23;2.15;;;1.95;;
29280;SDS011;25048;49.590;11.026;2022-07-29T04:46:51;2.67;;;1.72;;
29280;SDS011;25048;49.590;11.026;2022-07-29T04:49:18;6.50;;;1.90;;
29280;SDS011;25048;49.590;11.026;2022-07-29T04:51:46;4.40;;;1.70;;
29280;SDS011;25048;49.590;11.026;2022-07-29T04:54:13;3.17;;;1.85;;
29280;SDS011;25048;49.590;11.026;2022-07-29T04:56:41;2.75;;;2.25;;
29280;SDS011;25048;49.590;11.026;2022-07-29T04:59:08;5.53;;;2.00;;
29280;SDS011;25048;49.590;11.026;2022-07-29T05:01:36;5.03;;;1.80;;
29280;SDS011;25048;49.590;11.026;2022-07-29T05:04:03;3.40;;;1.62;;
29280;SDS011;25048;49.590;11.026;2022-07-29T05:06:31;3.65;;;1.95;;
29280;SDS011;25048;49.590;11.026;2022-07-29T05:08:58;4.33;;;1.60;;
29280;SDS011;25048;49.590;11.026;2022-07-29T05:11:26;3.50;;;1.80;;
29280;SDS011;25048;49.590;11.026;2022-07-29T05:13:53;4.05;;;2.10;;
29280;SDS011;25048;49.590;11.026;2022-07-29T05:16:21;5.42;;;2.08;;
29280;SDS011;25048;49.590;11.026;2022-07-29T05:18:48;4.08;;;1.67;;
29280;SDS011;25048;49.590;11.026;2022-07-29T05:21:16;3.08;;;1.82;;
29280;SDS011;25048;49.590;11.026;2022-07-29T05:23:43;3.85;;;2.10;;
29280;SDS011;25048;49.590;11.026;2022-07-29T05:26:11;2.45;;;1.75;;
29280;SDS011;25048;49.590;11.026;2022-07-29T05:28:38;2.58;;;1.75;;
29280;SDS011;25048;49.590;11.026;2022-07-29T05:31:06;3.08;;;1.75;;
29280;SDS011;25048;49.590;11.026;2022-07-29T05:33:33;2.50;;;1.98;;
29280;SDS011;25048;49.590;11.026;2022-07-29T05:36:01;3.08;;;1.85;;
29280;SDS011;25048;49.590;11.026;2022-07-29T05:38:28;3.85;;;1.98;;
29280;SDS011;25048;49.590;11.026;2022-07-29T05:40:56;2.42;;;1.77;;
29280;SDS011;25048;49.590;11.026;2022-07-29T05:43:26;3.20;;;1.80;;
29280;SDS011;25048;49.590;11.026;2022-07-29T05:45:54;3.83;;;2.22;;
29280;SDS011;25048;49.590;11.026;2022-07-29T05:48:22;3.00;;;1.70;;
29280;SDS011;25048;49.590;11.026;2022-07-29T05:50:50;5.08;;;1.77;;
29280;SDS011;25048;49.590;11.026;2022-07-29T05:53:17;2.35;;;1.60;;
29280;SDS011;25048;49.590;11.026;2022-07-29T05:55:45;3.55;;;1.82;;
29280;SDS011;25048;49.590;11.026;2022-07-29T05:58:12;3.08;;;1.82;;
29280;SDS011;25048;49.590;11.026;2022-07-29T06:00:40;3.92;;;1.70;;
29280;SDS011;25048;49.590;11.026;2022-07-29T06:03:08;3.10;;;1.90;;
29280;SDS011;25048;49.590;11.026;2022-07-29T06:05:35;3.37;;;1.82;;
29280;SDS011;25048;49.590;11.026;2022-07-29T06:08:03;4.72;;;1.98;;
29280;SDS011;25048;49.590;11.026;2022-07-29T06:10:34;2.55;;;1.75;;
29280;SDS011;25048;49.590;11.026;2022-07-29T06:13:02;4.15;;;1.67;;
29280;SDS011;25048;49.590;11.026;2022-07-29T06:15:30;2.92;;;1.65;;
29280;SDS011;25048;49.590;11.026;2022-07-29T06:17:57;6.08;;;1.82;;
29280;SDS011;25048;49.590;11.026;2022-07-29T06:20:25;4.78;;;2.12;;
29280;SDS011;25048;49.590;11.026;2022-07-29T06:22:54;2.27;;;1.35;;
29280;SDS011;25048;49.590;11.026;2022-07-29T06:25:22;5.45;;;2.00;;
29280;SDS011;25048;49.590;11.026;2022-07-29T06:27:49;5.03;;;1.92;;
29280;SDS011;25048;49.590;11.026;2022-07-29T06:30:17;3.00;;;1.90;;
29280;SDS011;25048;49.590;11.026;2022-07-29T06:32:45;3.12;;;1.67;;
29280;SDS011;25048;49.590;11.026;2022-07-29T06:35:12;5.53;;;1.95;;
29280;SDS011;25048;49.590;11.026;2022-07-29T06:37:40;2.72;;;2.00;;
29280;SDS011;25048;49.590;11.026;2022-07-29T06:40:08;2.65;;;1.80;;
29280;SDS011;25048;49.590;11.026;2022-07-29T06:42:54;6.87;;;2.30;;
29280;SDS011;25048;49.590;11.026;2022-07-29T06:45:21;3.87;;;2.67;;
29280;SDS011;25048;49.590;11.026;2022-07-29T06:47:50;4.72;;;1.95;;
29280;SDS011;25048;49.590;11.026;2022-07-29T06:50:18;4.28;;;2.00;;
29280;SDS011;25048;49.590;11.026;2022-07-29T06:52:47;3.35;;;1.85;;
29280;SDS011;25048;49.590;11.026;2022-07-29T06:55:15;7.75;;;2.02;;
29280;SDS011;25048;49.590;11.026;2022-07-29T06:57:45;4.45;;;2.00;;
29280;SDS011;25048;49.590;11.026;2022-07-29T07:00:12;3.62;;;2.27;;
29280;SDS011;25048;49.590;11.026;2022-07-29T07:02:40;2.92;;;2.20;;
29280;SDS011;25048;49.590;11.026;2022-07-29T07:05:08;4.15;;;2.10;;
29280;SDS011;25048;49.590;11.026;2022-07-29T07:07:35;6.55;;;2.00;;
29280;SDS011;25048;49.590;11.026;2022-07-29T07:10:03;4.83;;;2.00;;
29280;SDS011;25048;49.590;11.026;2022-07-29T07:12:31;8.60;;;1.98;;
29280;SDS011;25048;49.590;11.026;2022-07-29T07:14:59;4.50;;;2.33;;
29280;SDS011;25048;49.590;11.026;2022-07-29T07:17:26;7.37;;;2.45;;
29280;SDS011;25048;49.590;11.026;2022-07-29T07:19:54;7.08;;;2.30;;
29280;SDS011;25048;49.590;11.026;2022-07-29T07:22:21;4.40;;;2.15;;
29280;SDS011;25048;49.590;11.026;2022-07-29T07:24:49;4.62;;;2.10;;
29280;SDS011;25048;49.590;11.026;2022-07-29T07:27:16;4.47;;;2.72;;
29280;SDS011;25048;49.590;11.026;2022-07-29T07:29:44;5.40;;;2.30;;
29280;SDS011;25048;49.590;11.026;2022-07-29T07:32:11;5.20;;;2.08;;
29280;SDS011;25048;49.590;11.026;2022-07-29T07:34:40;3.90;;;2.20;;
29280;SDS011;25048;49.590;11.026;2022-07-29T07:37:07;2.87;;;1.98;;
29280;SDS011;25048;49.590;11.026;2022-07-29T07:39:35;3.62;;;2.00;;
29280;SDS011;25048;49.590;11.026;2022-07-29T07:42:02;4.15;;;2.02;;
29280;SDS011;25048;49.590;11.026;2022-07-29T07:44:30;6.03;;;2.27;;
29280;SDS011;25048;49.590;11.026;2022-07-29T07:46:57;6.70;;;2.17;;
29280;SDS011;25048;49.590;11.026;2022-07-29T07:49:25;5.03;;;2.17;;
29280;SDS011;25048;49.590;11.026;2022-07-29T07:51:52;2.05;;;1.70;;
29280;SDS011;25048;49.590;11.026;2022-07-29T07:54:20;3.12;;;2.17;;
29280;SDS011;25048;49.590;11.026;2022-07-29T07:56:48;2.87;;;2.00;;
29280;SDS011;25048;49.590;11.026;2022-07-29T07:59:15;6.37;;;2.25;;
29280;SDS011;25048;49.590;11.026;2022-07-29T08:01:43;4.78;;;2.17;;
29280;SDS011;25048;49.590;11.026;2022-07-29T08:04:10;3.42;;;2.00;;
29280;SDS011;25048;49.590;11.026;2022-07-29T08:06:38;3.55;;;2.33;;
29280;SDS011;25048;49.590;11.026;2022-07-29T08:09:06;4.85;;;1.82;;
29280;SDS011;25048;49.590;11.026;2022-07-29T08:11:33;6.78;;;2.55;;
29280;SDS011;25048;49.590;11.026;2022-07-29T08:14:01;3.92;;;2.10;;
29280;SDS011;25048;49.590;11.026;2022-07-29T08:16:28;5.15;;;1.80;;
29280;SDS011;25048;49.590;11.026;2022-07-29T08:18:56;3.20;;;2.35;;
29280;SDS011;25048;49.590;11.026;2022-07-29T08:21:23;4.08;;;2.33;;
29280;SDS011;25048;49.590;11.026;2022-07-29T08:23:51;3.83;;;2.02;;
29280;SDS011;25048;49.590;11.026;2022-07-29T08:26:20;3.40;;;2.08;;
29280;SDS011;25048;49.590;11.026;2022-07-29T08:28:49;4.80;;;2.50;;
29280;SDS011;25048;49.590;11.026;2022-07-29T08:31:16;6.22;;;2.30;;
29280;SDS011;25048;49.590;11.026;2022-07-29T08:33:44;4.55;;;2.20;;
29280;SDS011;25048;49.590;11.026;2022-07-29T08:36:11;3.92;;;2.08;;
29280;SDS011;25048;49.590;11.026;2022-07-29T08:38:40;3.30;;;2.02;;
29280;SDS011;25048;49.590;11.026;2022-07-29T08:41:07;4.53;;;1.98;;
29280;SDS011;25048;49.590;11.026;2022-07-29T08:43:35;4.15;;;2.52;;
29280;SDS011;25048;49.590;11.026;2022-07-29T08:46:03;3.10;;;2.15;;
29280;SDS011;25048;49.590;11.026;2022-07-29T08:48:31;8.38;;;2.50;;
29280;SDS011;25048;49.590;11.026;2022-07-29T08:51:00;4.10;;;2.00;;
29280;SDS011;25048;49.590;11.026;2022-07-29T08:53:28;5.85;;;2.52;;
29280;SDS011;25048;49.590;11.026;2022-07-29T08:55:56;4.00;;;2.10;;
29280;SDS011;25048;49.590;11.026;2022-07-29T08:58:25;3.20;;;2.10;;
29280;SDS011;25048;49.590;11.026;2022-07-29T09:00:55;3.85;;;2.35;;
29280;SDS011;25048;49.590;11.026;2022-07-29T09:03:24;5.33;;;2.40;;
29280;SDS011;25048;49.590;11.026;2022-07-29T09:05:53;5.42;;;2.20;;
29280;SDS011;25048;49.590;11.026;2022-07-29T09:08:21;2.75;;;2.12;;
29280;SDS011;25048;49.590;11.026;2022-07-29T09:10:50;3.77;;;2.20;;
29280;SDS011;25048;49.590;11.026;2022-07-29T09:13:17;3.58;;;2.22;;
29280;SDS011;25048;49.590;11.026;2022-07-29T09:15:45;2.17;;;1.85;;
29280;SDS011;25048;49.590;11.026;2022-07-29T09:18:29;5.75;;;2.30;;
29280;SDS011;25048;49.590;11.026;2022-07-29T09:21:01;7.33;;;2.05;;
29280;SDS011;25048;49.590;11.026;2022-07-29T09:24:04;8.85;;;2.47;;
29280;SDS011;25048;49.590;11.026;2022-07-29T09:26:34;3.83;;;2.02;;
29280;SDS011;25048;49.590;11.026;2022-07-29T09:29:07;2.30;;;2.02;;
29280;SDS011;25048;49.590;11.026;2022-07-29T09:31:38;2.55;;;1.70;;
29280;SDS011;25048;49.590;11.026;2022-07-29T09:34:07;8.98;;;2.20;;
29280;SDS011;25048;49.590;11.026;2022-07-29T09:36:46;5.78;;;2.22;;
29280;SDS011;25048;49.590;11.026;2022-07-29T09:39:15;7.42;;;2.42;;
29280;SDS011;25048;49.590;11.026;2022-07-29T09:41:49;3.60;;;2.02;;
29280;SDS011;25048;49.590;11.026;2022-07-29T09:44:21;7.03;;;2.70;;
29280;SDS011;25048;49.590;11.026;2022-07-29T09:46:59;9.28;;;2.40;;
29280;SDS011;25048;49.590;11.026;2022-07-29T09:49:35;3.75;;;2.12;;
29280;SDS011;25048;49.590;11.026;2022-07-29T09:52:05;4.05;;;2.67;;
29280;SDS011;25048;49.590;11.026;2022-07-29T09:54:34;3.55;;;2.40;;
29280;SDS011;25048;49.590;11.026;2022-07-29T09:57:07;3.83;;;2.37;;
29280;SDS011;25048;49.590;11.026;2022-07-29T09:59:38;10.28;;;2.87;;
29280;SDS011;25048;49.590;11.026;2022-07-29T10:02:13;3.47;;;2.50;;
29280;SDS011;25048;49.590;11.026;2022-07-29T10:04:41;5.95;;;2.50;;
29280;SDS011;25048;49.590;11.026;2022-07-29T10:07:09;6.65;;;2.35;;
29280;SDS011;25048;49.590;11.026;2022-07-29T10:09:37;5.03;;;2.45;;
29280;SDS011;25048;49.590;11.026;2022-07-29T10:14:35;4.62;;;3.02;;
29280;SDS011;25048;49.590;11.026;2022-07-29T10:17:04;4.45;;;3.40;;
29280;SDS011;25048;49.590;11.026;2022-07-29T10:19:33;2.55;;;2.35;;
29280;SDS011;25048;49.590;11.026;2022-07-29T10:22:03;3.92;;;2.20;;
29280;SDS011;25048;49.590;11.026;2022-07-29T10:24:33;3.85;;;2.72;;
29280;SDS011;25048;49.590;11.026;2022-07-29T10:27:02;6.20;;;2.98;;
29280;SDS011;25048;49.590;11.026;2022-07-29T10:29:31;3.77;;;2.45;;
29280;SDS011;25048;49.590;11.026;2022-07-29T10:32:13;5.95;;;2.83;;
29280;SDS011;25048;49.590;11.026;2022-07-29T10:34:51;6.25;;;2.60;;
29280;SDS011;25048;49.590;11.026;2022-07-29T10:37:33;7.10;;;3.30;;
29280;SDS011;25048;49.590;11.026;2022-07-29T10:40:02;5.47;;;2.90;;
29280;SDS011;25048;49.590;11.026;2022-07-29T10:42:39;7.05;;;2.42;;
29280;SDS011;25048;49.590;11.026;2022-07-29T10:45:08;6.00;;;2.87;;
29280;SDS011;25048;49.590;11.026;2022-07-29T10:47:35;2.80;;;2.60;;
29280;SDS011;25048;49.590;11.026;2022-07-29T10:50:04;7.33;;;2.90;;
29280;SDS011;25048;49.590;11.026;2022-07-29T10:55:36;6.37;;;2.47;;
29280;SDS011;25048;49.590;11.026;2022-07-29T10:58:22;5.20;;;3.00;;
29280;SDS011;25048;49.590;11.026;2022-07-29T11:00:51;6.12;;;2.83;;
29280;SDS011;25048;49.590;11.026;2022-07-29T11:06:13;4.45;;;2.85;;
29280;SDS011;25048;49.590;11.026;2022-07-29T11:08:41;3.52;;;2.80;;
29280;SDS011;25048;49.590;11.026;2022-07-29T11:13:59;4.58;;;3.05;;
29280;SDS011;25048;49.590;11.026;2022-07-29T11:16:31;5.20;;;3.27;;
29280;SDS011;25048;49.590;11.026;2022-07-29T11:21:46;8.03;;;3.20;;
29280;SDS011;25048;49.590;11.026;2022-07-29T11:24:20;4.85;;;3.10;;
29280;SDS011;25048;49.590;11.026;2022-07-29T11:27:10;5.12;;;3.52;;
29280;SDS011;25048;49.590;11.026;2022-07-29T11:29:54;4.28;;;3.20;;
29280;SDS011;25048;49.590;11.026;2022-07-29T11:32:25;7.90;;;3.17;;
29280;SDS011;25048;49.590;11.026;2022-07-29T11:37:46;6.60;;;3.58;;
29280;SDS011;25048;49.590;11.026;2022-07-29T11:40:15;5.53;;;3.00;;
29280;SDS011;25048;49.590;11.026;2022-07-29T11:42:45;5.90;;;3.30;;
29280;SDS011;25048;49.590;11.026;2022-07-29T11:45:14;3.92;;;3.30;;
29280;SDS011;25048;49.590;11.026;2022-07-29T11:50:17;4.37;;;3.10;;
29280;SDS011;25048;49.590;11.026;2022-07-29T11:52:56;6.47;;;3.20;;
29280;SDS011;25048;49.590;11.026;2022-07-29T11:55:24;4.62;;;3.00;;
29280;SDS011;25048;49.590;11.026;2022-07-29T11:57:52;4.40;;;2.98;;
29280;SDS011;25048;49.590;11.026;2022-07-29T12:00:30;9.00;;;3.22;;
29280;SDS011;25048;49.590;11.026;2022-07-29T12:03:05;4.20;;;3.25;;
29280;SDS011;25048;49.590;11.026;2022-07-29T12:05:31;4.33;;;3.25;;
29280;SDS011;25048;49.590;11.026;2022-07-29T12:08:04;3.70;;;3.20;;
29280;SDS011;25048;49.590;11.026;2022-07-29T12:10:32;3.77;;;3.00;;
29280;SDS011;25048;49.590;11.026;2022-07-29T12:13:00;5.95;;;3.20;;
29280;SDS011;25048;49.590;11.026;2022-07-29T12:15:28;3.33;;;3.02;;
29280;SDS011;25048;49.590;11.026;2022-07-29T12:17:55;5.35;;;3.15;;
29280;SDS011;25048;49.590;11.026;2022-07-29T12:20:28;4.35;;;3.10;;
29280;SDS011;25048;49.590;11.026;2022-07-29T12:22:54;6.40;;;3.17;;
29280;SDS011;25048;49.590;11.026;2022-07-29T12:25:23;4.60;;;3.37;;
29280;SDS011;25048;49.590;11.026;2022-07-29T12:27:59;7.00;;;2.90;;
29280;SDS011;25048;49.590;11.026;2022-07-29T12:30:35;5.55;;;3.10;;
29280;SDS011;25048;49.590;11.026;2022-07-29T12:33:12;4.70;;;2.70;;
29280;SDS011;25048;49.590;11.026;2022-07-29T12:35:49;6.35;;;3.02;;
29280;SDS011;25048;49.590;11.026;2022-07-29T12:38:18;3.58;;;2.90;;
29280;SDS011;25048;49.590;11.026;2022-07-29T12:40:47;4.92;;;2.90;;
29280;SDS011;25048;49.590;11.026;2022-07-29T12:43:22;4.28;;;2.65;;
29280;SDS011;25048;49.590;11.026;2022-07-29T12:45:47;3.80;;;2.80;;
29280;SDS011;25048;49.590;11.026;2022-07-29T12:48:17;5.95;;;2.90;;
29280;SDS011;25048;49.590;11.026;2022-07-29T12:50:53;4.42;;;2.90;;
29280;SDS011;25048;49.590;11.026;2022-07-29T12:53:23;5.87;;;2.92;;
29280;SDS011;25048;49.590;11.026;2022-07-29T12:55:51;5.03;;;2.67;;
29280;SDS011;25048;49.590;11.026;2022-07-29T12:58:31;5.45;;;2.85;;
29280;SDS011;25048;49.590;11.026;2022-07-29T13:01:15;6.55;;;2.85;;
29280;SDS011;25048;49.590;11.026;2022-07-29T13:06:39;4.97;;;3.12;;
29280;SDS011;25048;49.590;11.026;2022-07-29T13:09:16;4.60;;;3.00;;
29280;SDS011;25048;49.590;11.026;2022-07-29T13:11:50;6.25;;;3.47;;
29280;SDS011;25048;49.590;11.026;2022-07-29T13:14:32;4.83;;;2.98;;
29280;SDS011;25048;49.590;11.026;2022-07-29T13:17:02;4.33;;;2.70;;
29280;SDS011;25048;49.590;11.026;2022-07-29T13:22:17;3.08;;;2.70;;
29280;SDS011;25048;49.590;11.026;2022-07-29T13:27:21;4.92;;;2.80;;
29280;SDS011;25048;49.590;11.026;2022-07-29T13:29:50;7.00;;;3.17;;
29280;SDS011;25048;49.590;11.026;2022-07-29T13:32:19;4.17;;;3.25;;
29280;SDS011;25048;49.590;11.026;2022-07-29T13:34:47;4.97;;;3.02;;
29280;SDS011;25048;49.590;11.026;2022-07-29T13:37:14;3.35;;;3.00;;
29280;SDS011;25048;49.590;11.026;2022-07-29T13:39:42;3.70;;;2.70;;
29280;SDS011;25048;49.590;11.026;2022-07-29T13:42:10;3.65;;;2.92;;
29280;SDS011;25048;49.590;11.026;2022-07-29T13:44:40;5.05;;;3.02;;
29280;SDS011;25048;49.590;11.026;2022-07-29T13:47:08;4.12;;;2.90;;
29280;SDS011;25048;49.590;11.026;2022-07-29T13:49:35;6.78;;;3.52;;
29280;SDS011;25048;49.590;11.026;2022-07-29T13:52:03;4.55;;;2.90;;
29280;SDS011;25048;49.590;11.026;2022-07-29T13:54:32;2.77;;;2.52;;
29280;SDS011;25048;49.590;11.026;2022-07-29T13:57:01;3.17;;;2.87;;
29280;SDS011;25048;49.590;11.026;2022-07-29T13:59:30;3.05;;;2.70;;
29280;SDS011;25048;49.590;11.026;2022-07-29T14:01:57;5.12;;;3.40;;
29280;SDS011;25048;49.590;11.026;2022-07-29T14:04:34;3.47;;;3.02;;
29280;SDS011;25048;49.590;11.026;2022-07-29T14:07:06;4.67;;;3.00;;
29280;SDS011;25048;49.590;11.026;2022-07-29T14:09:36;5.22;;;2.62;;
29280;SDS011;25048;49.590;11.026;2022-07-29T14:12:03;4.30;;;2.55;;
29280;SDS011;25048;49.590;11.026;2022-07-29T14:14:31;4.25;;;2.50;;
29280;SDS011;25048;49.590;11.026;2022-07-29T14:17:01;3.20;;;2.40;;
29280;SDS011;25048;49.590;11.026;2022-07-29T14:19:29;3.35;;;2.27;;
29280;SDS011;25048;49.590;11.026;2022-07-29T14:21:59;4.80;;;2.55;;
29280;SDS011;25048;49.590;11.026;2022-07-29T14:24:27;13.88;;;3.98;;
29280;SDS011;25048;49.590;11.026;2022-07-29T14:26:55;9.53;;;2.72;;
29280;SDS011;25048;49.590;11.026;2022-07-29T14:29:23;11.00;;;3.02;;
29280;SDS011;25048;49.590;11.026;2022-07-29T14:31:50;16.57;;;4.72;;
29280;SDS011;25048;49.590;11.026;2022-07-29T14:34:18;16.75;;;5.35;;
29280;SDS011;25048;49.590;11.026;2022-07-29T14:36:46;13.60;;;5.28;;
29280;SDS011;25048;49.590;11.026;2022-07-29T14:39:14;17.73;;;5.10;;
29280;SDS011;25048;49.590;11.026;2022-07-29T14:41:42;12.88;;;5.30;;
29280;SDS011;25048;49.590;11.026;2022-07-29T14:44:10;10.88;;;4.37;;
29280;SDS011;25048;49.590;11.026;2022-07-29T14:46:37;8.75;;;4.90;;
29280;SDS011;25048;49.590;11.026;2022-07-29T14:49:05;12.65;;;4.78;;
29280;SDS011;25048;49.590;11.026;2022-07-29T14:51:32;9.40;;;5.25;;
29280;SDS011;25048;49.590;11.026;2022-07-29T14:54:00;10.25;;;5.40;;
29280;SDS011;25048;49.590;11.026;2022-07-29T14:56:28;9.85;;;5.05;;
29280;SDS011;25048;49.590;11.026;2022-07-29T14:58:56;8.08;;;4.95;;
29280;SDS011;25048;49.590;11.026;2022-07-29T15:01:24;6.85;;;5.85;;
29280;SDS011;25048;49.590;11.026;2022-07-29T15:03:52;18.07;;;6.00;;
29280;SDS011;25048;49.590;11.026;2022-07-29T15:06:19;8.75;;;6.33;;
29280;SDS011;25048;49.590;11.026;2022-07-29T15:08:48;8.75;;;6.28;;
29280;SDS011;25048;49.590;11.026;2022-07-29T15:11:15;7.75;;;6.05;;
29280;SDS011;25048;49.590;11.026;2022-07-29T15:13:43;10.32;;;6.45;;
29280;SDS011;25048;49.590;11.026;2022-07-29T15:16:10;8.98;;;6.42;;
29280;SDS011;25048;49.590;11.026;2022-07-29T15:18:38;9.90;;;7.42;;
29280;SDS011;25048;49.590;11.026;2022-07-29T15:21:05;8.13;;;6.22;;
29280;SDS011;25048;49.590;11.026;2022-07-29T15:23:33;8.50;;;6.50;;
29280;SDS011;25048;49.590;11.026;2022-07-29T15:26:02;9.88;;;6.00;;
29280;SDS011;25048;49.590;11.026;2022-07-29T15:28:30;9.88;;;6.83;;